createdAt,value
2023-05-21T00:01:13.663Z,96667.79
2023-05-21T00:04:44.853Z,96666.59
2023-05-21T00:07:55.632Z,96658.80
2023-05-21T00:11:08.497Z,96661.77
2023-05-21T00:14:43.662Z,96655.10
2023-05-21T00:18:12.623Z,96650.64
2023-05-21T00:21:43.449Z,96650.36
2023-05-21T00:25:19.651Z,96649.88
2023-05-21T00:28:42.460Z,96643.05
2023-05-21T00:32:02.856Z,96648.14
2023-05-21T00:35:26.662Z,96642.93
2023-05-21T00:38:44.657Z,96641.52
2023-05-21T00:41:59.745Z,96636.98
2023-05-21T00:45:28.662Z,96639.27
2023-05-21T00:49:00.644Z,96641.17
2023-05-21T01:11:51.649Z,96624.94
2023-05-21T01:21:33.671Z,96620.70
2023-05-21T01:24:53.648Z,96616.89
2023-05-21T01:28:38.627Z,96611.52
2023-05-21T02:30:40.896Z,96579.98
2023-05-21T02:33:09.304Z,96578.84
2023-05-21T02:35:38.028Z,96579.38
2023-05-21T02:38:09.088Z,96573.84
2023-05-21T02:40:36.940Z,96571.89
2023-05-21T02:43:04.949Z,96567.36
2023-05-21T02:45:33.067Z,96567.83
2023-05-21T02:48:01.215Z,96562.27
2023-05-21T02:50:30.356Z,96562.73
2023-05-21T02:52:59.820Z,96564.84
2023-05-21T02:55:28.012Z,96567.86
2023-05-21T02:57:56.036Z,96567.08
2023-05-21T03:00:23.916Z,96570.80
2023-05-21T03:02:51.956Z,96571.76
2023-05-21T03:05:19.967Z,96572.23
2023-05-21T03:07:47.829Z,96574.21
2023-05-21T03:10:16.283Z,96573.10
2023-05-21T03:15:40.310Z,96568.98
2023-05-21T03:18:11.685Z,96570.35
2023-05-21T03:20:44.546Z,96567.06
2023-05-21T03:23:15.710Z,96564.48
2023-05-21T03:25:46.201Z,96562.68
2023-05-21T03:28:14.407Z,96562.02
2023-05-21T03:30:46.736Z,96563.08
2023-05-21T03:33:31.806Z,96559.38
2023-05-21T03:35:59.962Z,96561.95
2023-05-21T03:38:29.216Z,96561.17
2023-05-21T03:40:57.014Z,96559.52
2023-05-21T03:43:25.456Z,96560.50
2023-05-21T03:45:54.727Z,96565.73
2023-05-21T03:48:36.824Z,96571.45
2023-05-21T03:51:04.810Z,96566.71
2023-05-21T03:53:36.167Z,96568.13
2023-05-21T03:56:04.348Z,96563.86
2023-05-21T03:58:33.028Z,96563.98
2023-05-21T04:01:02.778Z,96566.00
2023-05-21T04:03:36.731Z,96569.17
2023-05-21T04:06:10.373Z,96567.90
2023-05-21T04:09:24.337Z,96569.84
2023-05-21T04:13:13.245Z,96569.27
2023-05-21T04:16:28.975Z,96568.59
2023-05-21T04:19:39.081Z,96572.69
2023-05-21T04:23:11.004Z,96576.29
2023-05-21T04:26:46.952Z,96574.98
2023-05-21T04:30:15.414Z,96574.52
2023-05-21T04:33:23.816Z,96574.46
2023-05-21T04:36:33.903Z,96571.88
2023-05-21T04:39:35.487Z,96577.42
2023-05-21T04:43:24.279Z,96579.05
2023-05-21T04:46:30.586Z,96582.46
2023-05-21T04:49:30.953Z,96584.91
2023-05-21T04:52:36.148Z,96583.17
2023-05-21T04:55:31.679Z,96577.88
2023-05-21T04:58:23.794Z,96576.56
2023-05-21T05:01:35.603Z,96576.83
2023-05-21T05:04:35.912Z,96572.91
2023-05-21T05:07:47.590Z,96572.14
2023-05-21T05:10:51.616Z,96573.91
2023-05-21T05:13:49.035Z,96572.13
2023-05-21T05:16:32.518Z,96567.06
2023-05-21T05:20:21.433Z,96568.95
2023-05-21T05:23:30.070Z,96564.98
2023-05-21T05:26:43.500Z,96562.67
2023-05-21T05:29:59.166Z,96560.33
2023-05-21T05:32:39.478Z,96563.60
2023-05-21T05:35:10.762Z,96558.88
2023-05-21T05:38:19.507Z,96563.33
2023-05-21T05:41:36.745Z,96562.37
2023-05-21T05:44:40.532Z,96554.84
2023-05-21T05:48:15.041Z,96552.78
2023-05-21T05:51:30.302Z,96553.45
2023-05-21T05:54:46.221Z,96554.84
2023-05-21T05:58:21.499Z,96550.09
2023-05-21T06:01:18.318Z,96550.11
2023-05-21T06:04:07.398Z,96545.30
2023-05-21T06:07:05.422Z,96543.21
2023-05-21T06:10:15.524Z,96549.23
2023-05-21T06:13:35.223Z,96547.70
2023-05-21T06:17:28.861Z,96547.20
2023-05-21T06:20:58.664Z,96548.02
2023-05-21T06:24:05.673Z,96547.75
2023-05-21T06:27:41.886Z,96546.92
2023-05-21T06:31:19.226Z,96544.42
2023-05-21T06:38:31.751Z,96539.89
2023-05-21T06:41:52.271Z,96536.93
2023-05-21T06:45:35.865Z,96528.15
2023-05-21T06:48:42.307Z,96523.52
2023-05-21T06:51:53.158Z,96522.39
2023-05-21T06:55:16.634Z,96516.74
2023-05-21T06:58:25.566Z,96517.87
2023-05-21T07:01:31.397Z,96517.83
2023-05-21T07:04:20.166Z,96508.20
2023-05-21T07:07:29.520Z,96504.80
2023-05-21T07:10:58.286Z,96502.98
2023-05-21T07:13:45.391Z,96497.04
2023-05-21T07:16:51.090Z,96496.05
2023-05-21T07:20:01.266Z,96494.38
2023-05-21T07:23:11.494Z,96490.33
2023-05-21T07:25:48.900Z,96491.10
2023-05-21T07:28:41.666Z,96490.40
2023-05-21T07:31:39.066Z,96489.16
2023-05-21T07:34:17.823Z,96487.17
2023-05-21T07:37:28.581Z,96490.27
2023-05-21T07:40:37.844Z,96489.64
2023-05-21T07:43:45.749Z,96491.22
2023-05-21T07:47:16.287Z,96491.45
2023-05-21T07:50:25.979Z,96489.00
2023-05-21T07:53:26.331Z,96488.56
2023-05-21T07:56:22.628Z,96487.70
2023-05-21T07:59:32.444Z,96485.29
2023-05-21T08:03:00.131Z,96482.92
2023-05-21T08:06:46.750Z,96481.95
2023-05-21T08:10:45.056Z,96476.92
2023-05-21T08:13:52.398Z,96477.58
2023-05-21T08:17:14.569Z,96478.02
2023-05-21T08:20:37.132Z,96476.00
2023-05-21T08:23:37.384Z,96471.40
2023-05-21T08:26:46.058Z,96473.32
2023-05-21T08:30:11.525Z,96471.23
2023-05-21T08:33:38.589Z,96467.97
2023-05-21T08:36:07.905Z,96471.04
2023-05-21T08:39:13.042Z,96469.79
2023-05-21T08:42:09.135Z,96472.73
2023-05-21T08:44:42.059Z,96467.14
2023-05-21T08:47:14.448Z,96464.88
2023-05-21T08:49:43.000Z,96467.06
2023-05-21T08:52:12.377Z,96469.26
2023-05-21T08:54:41.740Z,96466.92
2023-05-21T08:57:10.059Z,96465.04
2023-05-21T08:59:40.093Z,96469.85
2023-05-21T09:02:12.573Z,96468.27
2023-05-21T09:04:42.319Z,96468.60
2023-05-21T09:07:11.182Z,96469.08
2023-05-21T09:10:06.157Z,96466.84
2023-05-21T09:12:34.988Z,96466.62
2023-05-21T09:15:03.732Z,96465.54
2023-05-21T09:17:34.846Z,96464.44
2023-05-21T09:20:15.024Z,96469.27
2023-05-21T09:22:50.807Z,96471.30
2023-05-21T09:25:23.478Z,96473.62
2023-05-21T09:27:51.889Z,96472.96
2023-05-21T09:30:24.072Z,96468.14
2023-05-21T09:32:58.805Z,96466.01
2023-05-21T09:35:27.507Z,96465.06
2023-05-21T09:37:57.359Z,96470.59
2023-05-21T09:40:26.138Z,96470.11
2023-05-21T09:42:55.281Z,96463.66
2023-05-21T09:45:28.500Z,96463.84
2023-05-21T09:47:57.991Z,96461.60
2023-05-21T09:50:28.300Z,96459.78
2023-05-21T09:52:56.437Z,96457.23
2023-05-21T09:55:26.631Z,96455.36
2023-05-21T09:57:54.722Z,96452.70
2023-05-21T10:00:27.404Z,96447.69
2023-05-21T10:02:57.178Z,96448.38
2023-05-21T10:05:28.373Z,96450.57
2023-05-21T10:08:01.813Z,96448.30
2023-05-21T10:10:32.711Z,96446.67
2023-05-21T10:13:04.664Z,96441.10
2023-05-21T10:15:41.456Z,96443.63
2023-05-21T10:21:57.170Z,96437.98
2023-05-21T10:24:25.984Z,96437.14
2023-05-21T10:26:54.168Z,96434.04
2023-05-21T10:29:23.231Z,96430.27
2023-05-21T10:31:53.455Z,96426.40
2023-05-21T10:34:23.353Z,96425.10
2023-05-21T10:36:52.699Z,96421.97
2023-05-21T10:39:24.260Z,96418.88
2023-05-21T10:42:15.066Z,96419.70
2023-05-21T10:45:01.735Z,96414.76
2023-05-21T10:47:52.142Z,96416.83
2023-05-21T10:50:58.857Z,96415.59
2023-05-21T10:53:48.014Z,96412.97
2023-05-21T10:56:24.872Z,96409.10
2023-05-21T10:59:22.065Z,96405.88
2023-05-21T11:01:55.259Z,96406.59
2023-05-21T11:04:27.064Z,96408.77
2023-05-21T11:06:56.511Z,96405.13
2023-05-21T11:09:24.625Z,96405.43
2023-05-21T11:11:57.938Z,96408.02
2023-05-21T11:14:39.633Z,96406.48
2023-05-21T11:17:14.109Z,96400.84
2023-05-21T11:19:48.762Z,96400.20
2023-05-21T11:22:27.137Z,96396.08
2023-05-21T11:24:56.528Z,96396.03
2023-05-21T11:27:42.733Z,96389.42
2023-05-21T11:30:15.187Z,96389.39
2023-05-21T11:33:18.123Z,96393.39
2023-05-21T11:35:59.643Z,96393.10
2023-05-21T11:38:30.982Z,96386.06
2023-05-21T11:41:03.670Z,96381.69
2023-05-21T11:43:31.712Z,96381.89
2023-05-21T11:46:01.514Z,96376.23
2023-05-21T11:48:33.633Z,96374.89
2023-05-21T11:51:02.160Z,96370.56
2023-05-21T11:53:30.616Z,96372.10
2023-05-21T11:55:59.747Z,96372.02
2023-05-21T11:58:31.275Z,96369.94
2023-05-21T12:00:59.232Z,96367.05
2023-05-21T12:03:27.632Z,96366.24
2023-05-21T12:06:05.321Z,96358.42
2023-05-21T12:08:33.436Z,96356.28
2023-05-21T12:11:01.838Z,96353.17
2023-05-21T12:13:30.813Z,96353.85
2023-05-21T12:15:58.788Z,96354.78
2023-05-21T12:18:26.669Z,96349.77
2023-05-21T12:20:54.660Z,96352.12
2023-05-21T12:23:24.131Z,96350.09
2023-05-21T12:25:53.800Z,96350.91
2023-05-21T12:28:24.576Z,96347.52
2023-05-21T12:30:53.704Z,96346.60
2023-05-21T12:33:25.040Z,96341.41
2023-05-21T12:35:53.379Z,96339.04
2023-05-21T12:38:21.695Z,96339.58
2023-05-21T12:40:49.567Z,96337.79
2023-05-21T12:43:17.570Z,96335.65
2023-05-21T12:45:45.602Z,96332.31
2023-05-21T12:48:13.869Z,96328.21
2023-05-21T12:50:43.473Z,96322.90
2023-05-21T12:53:12.292Z,96319.49
2023-05-21T12:55:40.755Z,96325.35
2023-05-21T12:58:13.199Z,96323.02
2023-05-21T13:00:43.580Z,96320.94
2023-05-21T13:03:12.171Z,96319.19
2023-05-21T13:05:41.784Z,96317.73
2023-05-21T13:08:10.672Z,96321.53
2023-05-21T13:10:38.999Z,96314.86
2023-05-21T13:13:07.277Z,96315.48
2023-05-21T13:15:35.304Z,96310.90
2023-05-21T13:18:03.427Z,96308.74
2023-05-21T13:20:31.425Z,96304.49
2023-05-21T13:22:59.573Z,96304.27
2023-05-21T13:25:29.224Z,96307.84
2023-05-21T13:27:58.335Z,96303.46
2023-05-21T13:30:26.663Z,96298.56
2023-05-21T13:32:55.667Z,96300.11
2023-05-21T13:35:23.935Z,96297.20
2023-05-21T13:37:51.844Z,96299.72
2023-05-21T13:40:20.342Z,96298.11
2023-05-21T13:42:50.169Z,96298.54
2023-05-21T13:45:38.878Z,96294.16
2023-05-21T13:48:27.727Z,96296.52
2023-05-21T13:50:55.953Z,96292.83
2023-05-21T13:53:24.455Z,96296.27
2023-05-21T13:55:52.457Z,96295.02
2023-05-21T13:58:43.489Z,96292.30
2023-05-21T14:01:32.155Z,96291.64
2023-05-21T14:04:04.281Z,96297.05
2023-05-21T14:06:32.417Z,96296.02
2023-05-21T14:09:00.468Z,96288.63
2023-05-21T14:11:28.653Z,96282.71
2023-05-21T14:13:57.024Z,96284.33
2023-05-21T14:16:27.836Z,96284.19
2023-05-21T14:18:57.541Z,96281.55
2023-05-21T14:21:26.645Z,96284.23
2023-05-21T14:23:54.590Z,96286.90
2023-05-21T14:26:22.568Z,96285.09
2023-05-21T14:28:50.895Z,96283.27
2023-05-21T14:31:19.070Z,96285.21
2023-05-21T14:33:47.285Z,96285.30
2023-05-21T14:36:15.888Z,96285.59
2023-05-21T14:38:43.910Z,96280.81
2023-05-21T14:41:11.975Z,96277.86
2023-05-21T14:43:39.892Z,96275.41
2023-05-21T14:46:07.904Z,96269.13
2023-05-21T14:48:35.965Z,96269.23
2023-05-21T14:51:04.101Z,96263.58
2023-05-21T14:53:32.393Z,96262.61
2023-05-21T14:56:00.241Z,96259.42
2023-05-21T14:58:28.110Z,96257.13
2023-05-21T15:00:56.363Z,96252.94
2023-05-21T15:03:24.394Z,96261.27
2023-05-21T15:05:52.426Z,96264.29
2023-05-21T15:08:20.495Z,96260.98
2023-05-21T15:10:48.333Z,96259.27
2023-05-21T15:13:16.229Z,96257.09
2023-05-21T15:15:44.669Z,96257.89
2023-05-21T15:18:12.714Z,96264.40
2023-05-21T15:20:40.724Z,96265.48
2023-05-21T15:23:16.733Z,96271.06
2023-05-21T15:25:45.977Z,96277.60
2023-05-21T15:28:13.999Z,96273.30
2023-05-21T15:30:41.967Z,96262.56
2023-05-21T15:33:11.011Z,96255.73
2023-05-21T15:35:39.484Z,96252.64
2023-05-21T15:38:07.942Z,96245.64
2023-05-21T15:40:35.887Z,96244.76
2023-05-21T15:43:04.018Z,96244.45
2023-05-21T15:45:31.922Z,96246.88
2023-05-21T15:47:59.920Z,96249.45
2023-05-21T15:50:27.980Z,96252.23
2023-05-21T15:52:55.946Z,96254.27
2023-05-21T15:55:24.191Z,96253.05
2023-05-21T15:57:52.171Z,96253.45
2023-05-21T16:00:20.183Z,96255.50
2023-05-21T16:02:48.318Z,96255.45
2023-05-21T16:05:16.293Z,96255.09
2023-05-21T16:07:53.244Z,96254.46
2023-05-21T16:10:22.256Z,96248.44
2023-05-21T16:12:50.133Z,96246.34
2023-05-21T16:15:18.002Z,96245.56
2023-05-21T16:17:46.473Z,96239.41
2023-05-21T16:20:14.591Z,96242.77
2023-05-21T16:22:42.561Z,96240.61
2023-05-21T16:25:10.383Z,96239.41
2023-05-21T16:27:38.206Z,96238.66
2023-05-21T16:30:07.474Z,96238.45
2023-05-21T16:32:35.315Z,96237.52
2023-05-21T16:35:03.700Z,96239.61
2023-05-21T16:37:31.618Z,96244.21
2023-05-21T16:39:59.374Z,96246.73
2023-05-21T16:42:27.547Z,96248.85
2023-05-21T16:44:55.386Z,96253.73
2023-05-21T16:47:23.791Z,96256.48
2023-05-21T16:49:51.940Z,96261.17
2023-05-21T16:52:19.971Z,96262.15
2023-05-21T16:54:48.842Z,96260.80
2023-05-21T16:57:16.768Z,96262.19
2023-05-21T16:59:44.596Z,96260.45
2023-05-21T17:02:13.468Z,96259.22
2023-05-21T17:04:41.416Z,96258.87
2023-05-21T17:07:09.440Z,96259.71
2023-05-21T17:09:37.325Z,96259.58
2023-05-21T17:12:05.453Z,96261.38
2023-05-21T17:14:35.033Z,96261.38
2023-05-21T17:17:04.366Z,96264.05
2023-05-21T17:19:32.498Z,96262.55
2023-05-21T17:22:00.514Z,96262.33
2023-05-21T17:24:28.439Z,96269.51
2023-05-21T17:26:56.463Z,96272.55
2023-05-21T17:29:24.631Z,96272.96
2023-05-21T17:31:52.522Z,96270.16
2023-05-21T17:34:21.211Z,96273.89
2023-05-21T17:36:49.128Z,96273.02
2023-05-21T17:39:17.475Z,96277.85
2023-05-21T17:41:47.522Z,96277.82
2023-05-21T17:44:17.015Z,96281.32
2023-05-21T17:46:46.324Z,96280.81
2023-05-21T17:49:14.213Z,96281.56
2023-05-21T17:51:43.418Z,96281.27
2023-05-21T17:54:11.629Z,96282.29
2023-05-21T17:56:39.867Z,96279.91
2023-05-21T17:59:09.501Z,96282.77
2023-05-21T18:01:39.980Z,96288.30
2023-05-21T18:04:10.828Z,96284.44
2023-05-21T18:06:39.709Z,96282.41
2023-05-21T18:09:08.008Z,96284.81
2023-05-21T18:11:36.581Z,96281.89
2023-05-21T18:14:32.214Z,96285.06
2023-05-21T18:17:00.737Z,96286.20
2023-05-21T18:19:28.869Z,96287.17
2023-05-21T18:21:56.802Z,96285.41
2023-05-21T18:24:24.699Z,96280.52
2023-05-21T18:26:52.641Z,96277.52
2023-05-21T18:29:21.101Z,96282.02
2023-05-21T18:31:49.146Z,96283.74
2023-05-21T18:34:17.536Z,96285.00
2023-05-21T18:36:45.800Z,96286.44
2023-05-21T18:39:14.805Z,96288.73
2023-05-21T18:41:43.734Z,96290.46
2023-05-21T18:44:11.531Z,96289.08
2023-05-21T18:46:39.451Z,96290.14
2023-05-21T18:49:07.470Z,96292.07
2023-05-21T18:51:35.951Z,96292.18
2023-05-21T18:54:03.909Z,96295.89
2023-05-21T18:56:31.997Z,96299.09
2023-05-21T18:58:59.977Z,96299.38
2023-05-21T19:01:28.138Z,96298.40
2023-05-21T19:03:56.279Z,96304.70
2023-05-21T19:06:25.602Z,96304.84
2023-05-21T19:08:54.341Z,96306.43
2023-05-21T19:11:23.855Z,96307.45
2023-05-21T19:13:51.903Z,96308.16
2023-05-21T19:16:19.903Z,96310.89
2023-05-21T19:19:21.405Z,96309.41
2023-05-21T19:23:07.971Z,96311.46
2023-05-21T19:26:54.764Z,96313.08
2023-05-21T19:30:30.069Z,96315.66
2023-05-21T19:34:02.408Z,96319.08
2023-05-21T19:37:56.334Z,96321.64
2023-05-21T19:41:19.671Z,96330.88
2023-05-21T19:45:39.119Z,96348.48
2023-05-21T19:48:50.607Z,96355.42
2023-05-21T19:51:49.729Z,96355.83
2023-05-21T19:55:08.929Z,96364.66
2023-05-21T19:58:23.769Z,96362.48
2023-05-21T20:01:05.585Z,96361.09
2023-05-21T20:03:58.609Z,96358.36
2023-05-21T20:06:47.934Z,96358.95
2023-05-21T20:10:07.233Z,96362.45
2023-05-21T20:13:30.313Z,96358.02
2023-05-21T20:25:05.318Z,96362.35
2023-05-21T20:28:31.087Z,96360.54
2023-05-21T20:31:45.365Z,96357.70
2023-05-21T20:35:55.561Z,96359.09
2023-05-21T20:39:30.180Z,96359.32
2023-05-21T20:42:42.339Z,96361.28
2023-05-21T20:45:53.672Z,96365.94
2023-05-21T20:48:45.131Z,96363.38
2023-05-21T20:52:10.982Z,96365.78
2023-05-21T20:55:10.484Z,96364.61
2023-05-21T20:59:01.646Z,96361.50
2023-05-21T21:02:16.203Z,96359.83
2023-05-21T21:05:11.680Z,96360.11
2023-05-21T21:08:21.186Z,96366.52
2023-05-21T21:11:11.816Z,96369.57
2023-05-21T21:13:41.888Z,96374.48
2023-05-21T21:16:09.966Z,96373.47
2023-05-21T21:18:38.023Z,96377.61
2023-05-21T21:21:06.236Z,96373.79
2023-05-21T21:23:34.169Z,96380.14
2023-05-21T21:26:02.089Z,96379.10
2023-05-21T21:28:30.391Z,96382.23
2023-05-21T21:30:59.049Z,96383.13
2023-05-21T21:33:26.993Z,96383.20
2023-05-21T21:36:16.820Z,96382.26
2023-05-21T21:39:34.703Z,96384.17
2023-05-21T21:42:12.040Z,96388.88
2023-05-21T21:45:01.306Z,96390.23
2023-05-21T21:47:32.065Z,96393.73
2023-05-21T21:50:58.318Z,96393.79
2023-05-21T21:54:10.139Z,96390.90
2023-05-21T21:57:14.833Z,96387.71
2023-05-21T22:00:30.337Z,96393.45
2023-05-21T22:03:27.320Z,96394.38
2023-05-21T22:06:15.329Z,96390.67
2023-05-21T22:09:38.917Z,96387.05
2023-05-21T22:12:57.388Z,96389.25
2023-05-21T22:16:07.235Z,96391.90
2023-05-21T22:19:08.288Z,96387.95
2023-05-21T22:22:40.316Z,96385.11
2023-05-21T22:25:43.927Z,96386.71
2023-05-21T22:29:02.947Z,96387.98
2023-05-21T22:32:22.091Z,96389.30
2023-05-21T22:35:28.363Z,96389.83
2023-05-21T22:38:43.809Z,96388.96
2023-05-21T22:41:39.641Z,96392.28
2023-05-21T22:45:30.853Z,96393.38
2023-05-21T22:49:02.402Z,96391.32
2023-05-21T22:52:12.124Z,96392.33
2023-05-21T22:55:59.486Z,96394.29
2023-05-21T22:59:29.150Z,96396.91
2023-05-21T23:02:21.873Z,96395.06
2023-05-21T23:05:35.746Z,96395.53
2023-05-21T23:08:45.343Z,96395.73
2023-05-21T23:12:16.578Z,96392.98
2023-05-21T23:15:46.828Z,96389.38
2023-05-21T23:18:32.271Z,96389.52
2023-05-21T23:22:15.452Z,96388.73
2023-05-21T23:25:01.106Z,96386.42
2023-05-21T23:27:51.654Z,96388.85
2023-05-21T23:31:28.768Z,96389.05
2023-05-21T23:34:30.843Z,96385.80
2023-05-21T23:37:42.517Z,96385.70
2023-05-21T23:41:24.831Z,96386.83
2023-05-21T23:44:27.021Z,96385.20
2023-05-21T23:47:40.049Z,96380.14
2023-05-21T23:50:40.104Z,96379.15
2023-05-21T23:53:52.891Z,96378.67
2023-05-21T23:57:06.485Z,96376.81
